Time;durP1;ratioP1;P1;durP2;ratioP2;P2;SDS_P1;SDS_P2;PMS_P1;PMS_P2;Temp;Humidity;BMP_temperature;BMP_pressure;BME280_temperature;BME280_humidity;BME280_pressure;Samples;Min_cycle;Max_cycle;Signal;HPM_P1;HPM_P2
2023/07/07 00:01:10;;;;;;;5.27;4.80;;;;;;;;;;5012947;28;20465;-61
2023/07/07 00:03:38;;;;;;;6.37;4.43;;;;;;;;;;5013452;28;20415;-61
2023/07/07 00:06:04;;;;;;;5.40;4.90;;;;;;;;;;5013465;28;20441;-61
2023/07/07 00:08:33;;;;;;;5.03;4.57;;;;;;;;;;5013204;28;20434;-61
2023/07/07 00:11:04;;;;;;;5.00;4.63;;;;;;;;;;5013352;28;20440;-61
2023/07/07 00:13:30;;;;;;;4.00;3.70;;;;;;;;;;5013274;28;20551;-61
2023/07/07 00:16:03;;;;;;;5.27;4.77;;;;;;;;;;5013331;28;20802;-61
2023/07/07 00:18:31;;;;;;;4.37;4.07;;;;;;;;;;5013173;28;20441;-61
2023/07/07 00:21:00;;;;;;;4.00;3.70;;;;;;;;;;5012226;28;20454;-61
2023/07/07 00:23:30;;;;;;;4.43;4.13;;;;;;;;;;5013068;28;20404;-61
2023/07/07 00:25:59;;;;;;;4.87;4.47;;;;;;;;;;5012998;28;20466;-61
2023/07/07 00:28:28;;;;;;;4.60;4.40;;;;;;;;;;5011869;28;20428;-61
2023/07/07 00:30:54;;;;;;;5.30;4.90;;;;;;;;;;5013013;28;20414;-61
2023/07/07 00:33:22;;;;;;;8.27;5.20;;;;;;;;;;5012983;28;20842;-61
2023/07/07 00:35:49;;;;;;;5.50;4.47;;;;;;;;;;5012906;28;20424;-61
2023/07/07 00:38:15;;;;;;;4.83;4.40;;;;;;;;;;5012634;28;20504;-61
2023/07/07 00:40:44;;;;;;;6.67;4.73;;;;;;;;;;5012952;28;20393;-61
2023/07/07 00:43:13;;;;;;;7.30;5.13;;;;;;;;;;5012968;28;20456;-61
2023/07/07 00:45:39;;;;;;;5.10;4.80;;;;;;;;;;5012909;28;20511;-61
2023/07/07 00:48:09;;;;;;;6.10;4.80;;;;;;;;;;5011900;28;20507;-61
2023/07/07 00:50:40;;;;;;;5.27;4.93;;;;;;;;;;5012501;28;20503;-61
2023/07/07 00:53:06;;;;;;;5.10;4.80;;;;;;;;;;5012100;28;20464;-61
2023/07/07 00:55:40;;;;;;;9.13;4.97;;;;;;;;;;5012909;28;20425;-61
2023/07/07 00:58:08;;;;;;;5.50;4.83;;;;;;;;;;5013131;28;20416;-61
2023/07/07 01:00:35;;;;;;;5.30;4.90;;;;;;;;;;5012651;28;20429;-61
2023/07/07 01:03:03;;;;;;;5.80;5.30;;;;;;;;;;5012645;28;20419;-61
2023/07/07 01:05:31;;;;;;;5.40;4.90;;;;;;;;;;5012909;28;20440;-61
2023/07/07 01:08:00;;;;;;;5.90;5.30;;;;;;;;;;5012691;28;20424;-61
2023/07/07 01:10:26;;;;;;;5.57;5.17;;;;;;;;;;5012637;28;20495;-61
2023/07/07 01:12:52;;;;;;;5.30;4.90;;;;;;;;;;5012442;28;20562;-61
2023/07/07 01:15:29;;;;;;;5.40;4.80;;;;;;;;;;5012643;28;20430;-61
2023/07/07 01:18:10;;;;;;;8.50;4.70;;;;;;;;;;5012487;28;20475;-61
2023/07/07 01:20:41;;;;;;;4.70;4.40;;;;;;;;;;5012302;28;20751;-61
2023/07/07 01:23:10;;;;;;;5.27;4.97;;;;;;;;;;5012419;28;20926;-61
2023/07/07 01:25:55;;;;;;;5.43;5.00;;;;;;;;;;5012483;28;20418;-61
2023/07/07 01:28:40;;;;;;;4.73;4.40;;;;;;;;;;5012581;28;20410;-61
2023/07/07 01:31:11;;;;;;;5.13;4.73;;;;;;;;;;5012359;28;20422;-61
2023/07/07 01:33:37;;;;;;;5.83;5.13;;;;;;;;;;5013700;28;20473;-61
2023/07/07 01:36:03;;;;;;;5.70;5.30;;;;;;;;;;5016259;28;20411;-61
2023/07/07 01:38:29;;;;;;;6.00;5.50;;;;;;;;;;5015894;28;20421;-61
2023/07/07 01:40:58;;;;;;;5.97;4.60;;;;;;;;;;5016003;28;20409;-61
2023/07/07 01:43:27;;;;;;;5.80;5.27;;;;;;;;;;5015959;28;20427;-61
2023/07/07 01:45:58;;;;;;;5.27;4.53;;;;;;;;;;5016042;28;20410;-61
2023/07/07 01:48:36;;;;;;;5.27;4.87;;;;;;;;;;5015944;28;20469;-61
2023/07/07 01:51:04;;;;;;;6.33;5.00;;;;;;;;;;5015856;28;20426;-61
2023/07/07 01:53:31;;;;;;;5.40;5.00;;;;;;;;;;5015739;28;20873;-61
2023/07/07 01:55:59;;;;;;;5.53;5.03;;;;;;;;;;5015834;28;20791;-61
2023/07/07 01:58:25;;;;;;;5.67;5.20;;;;;;;;;;5015847;28;20410;-61
2023/07/07 02:00:52;;;;;;;5.27;4.70;;;;;;;;;;5015667;28;20808;-61
2023/07/07 02:03:19;;;;;;;5.27;4.87;;;;;;;;;;5015612;28;20430;-61
2023/07/07 02:05:46;;;;;;;5.40;4.93;;;;;;;;;;5015534;28;20437;-61
2023/07/07 02:08:12;;;;;;;4.97;4.57;;;;;;;;;;5015612;28;20523;-61
2023/07/07 02:10:38;;;;;;;7.73;5.10;;;;;;;;;;5015562;28;20518;-61
2023/07/07 02:13:04;;;;;;;4.97;4.47;;;;;;;;;;5013991;28;20578;-61
2023/07/07 02:15:30;;;;;;;6.10;5.60;;;;;;;;;;5015462;28;20904;-61
2023/07/07 02:17:56;;;;;;;5.33;5.03;;;;;;;;;;5015219;28;20924;-61
2023/07/07 02:20:22;;;;;;;12.70;5.20;;;;;;;;;;5015295;28;20508;-61
2023/07/07 02:22:51;;;;;;;5.63;5.23;;;;;;;;;;5015226;28;20505;-61
2023/07/07 02:25:17;;;;;;;7.43;5.23;;;;;;;;;;5015235;28;20425;-61
2023/07/07 02:27:45;;;;;;;7.07;4.70;;;;;;;;;;5015127;28;20476;-61
2023/07/07 02:30:12;;;;;;;7.70;5.07;;;;;;;;;;5015287;28;20412;-61
2023/07/07 02:32:38;;;;;;;5.37;4.97;;;;;;;;;;5015074;28;20485;-61
2023/07/07 02:35:06;;;;;;;5.37;4.97;;;;;;;;;;5015279;28;20415;-61
2023/07/07 02:37:35;;;;;;;5.43;4.93;;;;;;;;;;5015053;28;20548;-61
2023/07/07 02:40:01;;;;;;;5.80;5.23;;;;;;;;;;5014963;28;20909;-61
2023/07/07 02:42:27;;;;;;;5.27;4.87;;;;;;;;;;5014945;28;20955;-63
2023/07/07 02:44:53;;;;;;;5.00;4.60;;;;;;;;;;5013748;28;20940;-62
2023/07/07 02:47:19;;;;;;;4.63;4.40;;;;;;;;;;5014830;28;20449;-62
2023/07/07 02:49:48;;;;;;;5.30;4.97;;;;;;;;;;5014790;28;20422;-62
2023/07/07 02:52:14;;;;;;;5.27;4.87;;;;;;;;;;5014478;28;20508;-63
2023/07/07 02:54:40;;;;;;;6.30;4.80;;;;;;;;;;5013189;28;20457;-62
2023/07/07 02:57:09;;;;;;;5.13;4.73;;;;;;;;;;5014539;28;20449;-62
2023/07/07 02:59:35;;;;;;;5.90;5.07;;;;;;;;;;5014633;28;20808;-62
2023/07/07 03:02:01;;;;;;;5.33;4.50;;;;;;;;;;5014463;28;20503;-62
2023/07/07 03:04:27;;;;;;;5.83;5.10;;;;;;;;;;5014602;28;20454;-66
2023/07/07 03:06:55;;;;;;;5.27;4.90;;;;;;;;;;5014789;28;20427;-65
2023/07/07 03:09:21;;;;;;;7.97;5.00;;;;;;;;;;5014887;28;20413;-65
2023/07/07 03:11:49;;;;;;;6.70;4.93;;;;;;;;;;5014501;28;20461;-65
2023/07/07 03:14:19;;;;;;;5.77;5.00;;;;;;;;;;5014143;28;20421;-65
2023/07/07 03:16:51;;;;;;;6.10;5.50;;;;;;;;;;5014229;28;20505;-65
2023/07/07 03:19:17;;;;;;;5.30;4.90;;;;;;;;;;5014602;28;20402;-65
2023/07/07 03:21:43;;;;;;;5.00;4.70;;;;;;;;;;5014119;28;20406;-65
2023/07/07 03:24:09;;;;;;;5.17;4.77;;;;;;;;;;5014098;28;20437;-65
2023/07/07 03:26:37;;;;;;;4.53;4.13;;;;;;;;;;5014058;28;20757;-65
2023/07/07 03:29:03;;;;;;;5.70;5.13;;;;;;;;;;5013905;28;20439;-65
2023/07/07 03:31:30;;;;;;;4.50;4.20;;;;;;;;;;5012777;28;20462;-65
2023/07/07 03:33:58;;;;;;;5.57;5.17;;;;;;;;;;5013779;28;20817;-65
2023/07/07 03:36:25;;;;;;;6.63;5.00;;;;;;;;;;5014056;28;20663;-65
2023/07/07 03:38:51;;;;;;;5.10;4.73;;;;;;;;;;5013893;28;20435;-65
2023/07/07 03:41:19;;;;;;;5.90;5.40;;;;;;;;;;5013650;28;20415;-65
2023/07/07 03:43:45;;;;;;;7.50;4.80;;;;;;;;;;5013741;28;20434;-65
2023/07/07 03:46:18;;;;;;;5.53;5.13;;;;;;;;;;5013783;28;20411;-65
2023/07/07 03:48:45;;;;;;;5.17;4.80;;;;;;;;;;5013387;28;20457;-65
2023/07/07 03:51:12;;;;;;;5.27;4.90;;;;;;;;;;5013690;28;20413;-65
2023/07/07 03:53:38;;;;;;;5.17;4.80;;;;;;;;;;5013574;28;20465;-65
2023/07/07 03:56:05;;;;;;;5.30;4.97;;;;;;;;;;5012012;28;20436;-65
2023/07/07 03:58:31;;;;;;;4.73;4.40;;;;;;;;;;5013270;28;20421;-65
2023/07/07 04:01:06;;;;;;;5.73;5.30;;;;;;;;;;5013560;28;20516;-65
2023/07/07 04:03:35;;;;;;;6.97;5.57;;;;;;;;;;5013201;28;20473;-65
2023/07/07 04:06:01;;;;;;;5.77;5.27;;;;;;;;;;5013544;28;20420;-65
2023/07/07 04:08:27;;;;;;;35.60;27.17;;;;;;;;;;5013313;28;20530;-65
2023/07/07 04:11:00;;;;;;;19.70;17.20;;;;;;;;;;5013439;28;20796;-65
2023/07/07 04:13:27;;;;;;;6.50;5.90;;;;;;;;;;5013139;28;20480;-65
2023/07/07 04:16:13;;;;;;;6.33;5.73;;;;;;;;;;5012114;28;20427;-65
2023/07/07 04:18:39;;;;;;;6.30;5.80;;;;;;;;;;5012071;28;20489;-65
2023/07/07 04:21:07;;;;;;;5.60;5.07;;;;;;;;;;5013263;28;20839;-65
2023/07/07 04:23:34;;;;;;;4.47;4.27;;;;;;;;;;5013069;28;20967;-65
2023/07/07 04:26:02;;;;;;;10.23;9.33;;;;;;;;;;5013133;28;20990;-65
2023/07/07 04:28:31;;;;;;;5.70;5.40;;;;;;;;;;5013035;28;20437;-65
2023/07/07 04:30:58;;;;;;;6.63;6.10;;;;;;;;;;5013155;28;20906;-65
2023/07/07 04:33:24;;;;;;;5.80;5.23;;;;;;;;;;5012919;28;20483;-65
2023/07/07 04:35:51;;;;;;;7.83;5.83;;;;;;;;;;5013027;28;20970;-65
2023/07/07 04:38:21;;;;;;;5.03;4.63;;;;;;;;;;5012870;28;20440;-65
2023/07/07 04:40:47;;;;;;;5.60;5.20;;;;;;;;;;5012930;28;20426;-65
2023/07/07 04:43:13;;;;;;;4.70;4.40;;;;;;;;;;5011644;28;20450;-65
2023/07/07 04:45:39;;;;;;;7.17;5.07;;;;;;;;;;5012982;28;20406;-65
2023/07/07 04:48:05;;;;;;;6.60;5.13;;;;;;;;;;5012845;28;20426;-65
2023/07/07 04:50:34;;;;;;;7.97;5.70;;;;;;;;;;5011762;28;20411;-65
2023/07/07 04:53:01;;;;;;;22.50;8.93;;;;;;;;;;5012752;28;20471;-65
2023/07/07 04:55:27;;;;;;;18.17;7.33;;;;;;;;;;5013002;28;20423;-65
2023/07/07 04:57:53;;;;;;;9.93;6.20;;;;;;;;;;5012749;28;20412;-65
2023/07/07 05:00:22;;;;;;;5.40;4.93;;;;;;;;;;5012771;28;20435;-65
2023/07/07 05:02:50;;;;;;;9.47;6.43;;;;;;;;;;5012650;28;20458;-65
2023/07/07 05:05:16;;;;;;;10.53;6.27;;;;;;;;;;5012923;28;20426;-65
2023/07/07 05:07:42;;;;;;;5.33;5.03;;;;;;;;;;5012555;28;20865;-65
2023/07/07 05:10:08;;;;;;;6.83;6.23;;;;;;;;;;5016631;28;20447;-65
2023/07/07 05:12:34;;;;;;;7.63;5.43;;;;;;;;;;5016393;28;20477;-65
2023/07/07 05:15:03;;;;;;;8.63;5.17;;;;;;;;;;5016633;28;20415;-65
2023/07/07 05:17:29;;;;;;;9.70;5.27;;;;;;;;;;5016566;28;20899;-65
2023/07/07 05:19:57;;;;;;;8.57;6.60;;;;;;;;;;5016586;28;20462;-65
2023/07/07 05:22:23;;;;;;;8.20;5.63;;;;;;;;;;5016569;28;20407;-65
2023/07/07 05:24:49;;;;;;;10.20;5.90;;;;;;;;;;5016388;28;20440;-65
2023/07/07 05:27:15;;;;;;;6.07;5.57;;;;;;;;;;5016257;28;20441;-65
2023/07/07 05:29:41;;;;;;;6.97;5.50;;;;;;;;;;5014908;28;20542;-65
2023/07/07 05:32:10;;;;;;;6.03;5.23;;;;;;;;;;5016136;28;20420;-65
2023/07/07 05:34:38;;;;;;;4.90;4.67;;;;;;;;;;5016148;28;20887;-65
2023/07/07 05:37:07;;;;;;;5.83;5.23;;;;;;;;;;5016335;28;20790;-65
2023/07/07 05:39:33;;;;;;;8.63;5.80;;;;;;;;;;5016136;28;20443;-66
2023/07/07 05:41:58;;;;;;;6.77;6.00;;;;;;;;;;5016086;28;20499;-66
2023/07/07 05:44:27;;;;;;;5.90;5.30;;;;;;;;;;5015757;28;20437;-66
2023/07/07 05:46:53;;;;;;;5.40;4.90;;;;;;;;;;5015957;28;20954;-66
2023/07/07 05:49:19;;;;;;;5.27;4.77;;;;;;;;;;5015991;28;20440;-66
2023/07/07 05:51:44;;;;;;;5.33;4.83;;;;;;;;;;5014563;28;20441;-66
2023/07/07 05:54:10;;;;;;;12.50;6.07;;;;;;;;;;5015868;28;20487;-66
2023/07/07 05:56:36;;;;;;;6.13;5.20;;;;;;;;;;5015810;28;20837;-65
2023/07/07 05:59:06;;;;;;;7.70;5.40;;;;;;;;;;5015789;28;20499;-65
2023/07/07 06:01:33;;;;;;;5.93;5.43;;;;;;;;;;5013774;28;20454;-65
2023/07/07 06:03:59;;;;;;;7.00;5.37;;;;;;;;;;5015556;28;20418;-65
2023/07/07 06:06:27;;;;;;;8.40;7.00;;;;;;;;;;5015566;28;20421;-65
2023/07/07 06:08:53;;;;;;;7.03;5.40;;;;;;;;;;5015166;28;20427;-65
2023/07/07 06:11:21;;;;;;;7.87;5.63;;;;;;;;;;5015521;28;20422;-65
2023/07/07 06:13:47;;;;;;;7.10;5.40;;;;;;;;;;5015462;28;20466;-65
2023/07/07 06:16:14;;;;;;;8.67;5.33;;;;;;;;;;5015248;28;20478;-66
2023/07/07 06:18:42;;;;;;;5.30;4.90;;;;;;;;;;5015405;28;20454;-66
2023/07/07 06:21:08;;;;;;;5.23;4.90;;;;;;;;;;5015438;28;20497;-65
2023/07/07 06:23:34;;;;;;;9.30;5.87;;;;;;;;;;5015427;28;20498;-65
2023/07/07 06:26:01;;;;;;;5.47;4.97;;;;;;;;;;5015545;28;20417;-65
2023/07/07 06:28:27;;;;;;;7.80;4.73;;;;;;;;;;5015387;28;20420;-65
2023/07/07 06:30:53;;;;;;;5.33;4.83;;;;;;;;;;5015165;28;20442;-65
2023/07/07 06:33:19;;;;;;;8.87;5.07;;;;;;;;;;5015125;28;20473;-65
2023/07/07 06:35:45;;;;;;;4.90;4.60;;;;;;;;;;5015063;28;20420;-65
2023/07/07 06:38:12;;;;;;;5.37;4.90;;;;;;;;;;5015159;28;20409;-65
2023/07/07 06:40:38;;;;;;;7.17;4.70;;;;;;;;;;5015098;28;20438;-65
2023/07/07 06:43:04;;;;;;;10.77;4.63;;;;;;;;;;5015012;28;20415;-65
2023/07/07 06:45:31;;;;;;;5.30;4.80;;;;;;;;;;5014905;28;20832;-66
2023/07/07 06:48:00;;;;;;;5.53;3.90;;;;;;;;;;5014873;28;20423;-66
2023/07/07 06:50:30;;;;;;;9.77;4.20;;;;;;;;;;5014753;28;20428;-66
2023/07/07 06:52:56;;;;;;;6.43;4.97;;;;;;;;;;5014356;28;20468;-65
2023/07/07 06:55:23;;;;;;;4.80;4.50;;;;;;;;;;5014695;28;20512;-65
2023/07/07 06:57:51;;;;;;;4.60;4.23;;;;;;;;;;5014803;28;20773;-65
2023/07/07 07:00:17;;;;;;;5.20;4.90;;;;;;;;;;5014527;28;20462;-65
2023/07/07 07:02:44;;;;;;;5.83;4.83;;;;;;;;;;5014416;28;20791;-65
2023/07/07 07:05:10;;;;;;;5.33;4.83;;;;;;;;;;5014649;28;20821;-65
2023/07/07 07:07:36;;;;;;;10.03;4.33;;;;;;;;;;5014409;28;20438;-65
2023/07/07 07:10:03;;;;;;;4.57;4.20;;;;;;;;;;5014454;28;20924;-65
2023/07/07 07:12:29;;;;;;;45.17;30.10;;;;;;;;;;5014403;28;20460;-65
2023/07/07 07:14:58;;;;;;;21.97;13.47;;;;;;;;;;5014371;28;20786;-65
2023/07/07 07:17:24;;;;;;;24.57;12.13;;;;;;;;;;5013161;28;20425;-65
2023/07/07 07:19:51;;;;;;;6.13;4.97;;;;;;;;;;5014255;28;20418;-65
2023/07/07 07:22:17;;;;;;;5.63;5.13;;;;;;;;;;5013998;28;20434;-65
2023/07/07 07:24:46;;;;;;;16.23;10.57;;;;;;;;;;5014180;28;20504;-65
2023/07/07 07:27:12;;;;;;;26.37;15.10;;;;;;;;;;5014234;28;20546;-65
2023/07/07 07:29:37;;;;;;;5.20;4.73;;;;;;;;;;5013681;28;20509;-65
2023/07/07 07:32:04;;;;;;;7.30;4.97;;;;;;;;;;5012044;28;20426;-65
2023/07/07 07:34:31;;;;;;;6.00;4.77;;;;;;;;;;5014033;28;20931;-65
2023/07/07 07:36:59;;;;;;;9.07;4.50;;;;;;;;;;5013858;28;20464;-65
2023/07/07 07:39:25;;;;;;;5.17;4.67;;;;;;;;;;5013830;28;20431;-65
2023/07/07 07:41:52;;;;;;;4.97;4.43;;;;;;;;;;5013791;28;20410;-65
2023/07/07 07:44:19;;;;;;;5.47;4.50;;;;;;;;;;5013674;28;20423;-65
2023/07/07 07:46:45;;;;;;;6.00;4.60;;;;;;;;;;5013516;28;20899;-65
2023/07/07 07:49:14;;;;;;;5.30;4.60;;;;;;;;;;5013632;28;20430;-65
2023/07/07 07:51:40;;;;;;;4.83;4.40;;;;;;;;;;5013487;28;20432;-65
2023/07/07 07:54:10;;;;;;;18.60;7.20;;;;;;;;;;5013039;28;20836;-65
2023/07/07 07:56:39;;;;;;;4.90;4.50;;;;;;;;;;5013836;28;20514;-65
2023/07/07 07:59:05;;;;;;;4.70;4.50;;;;;;;;;;5013520;28;20450;-65
2023/07/07 08:01:31;;;;;;;5.60;5.10;;;;;;;;;;5013342;28;20455;-65
2023/07/07 08:04:00;;;;;;;6.50;4.63;;;;;;;;;;5013278;28;20488;-65
2023/07/07 08:06:26;;;;;;;6.67;5.33;;;;;;;;;;5013356;28;20442;-65
2023/07/07 08:08:52;;;;;;;6.53;5.87;;;;;;;;;;5013396;28;20472;-65
2023/07/07 08:11:19;;;;;;;5.93;5.57;;;;;;;;;;5013298;28;20444;-65
2023/07/07 08:13:47;;;;;;;5.93;5.37;;;;;;;;;;5011894;28;20582;-65
2023/07/07 08:16:13;;;;;;;6.57;5.97;;;;;;;;;;5013064;28;20449;-65
2023/07/07 08:18:40;;;;;;;6.43;5.93;;;;;;;;;;5013370;28;20406;-65
2023/07/07 08:21:06;;;;;;;5.30;4.90;;;;;;;;;;5013227;28;20445;-65
2023/07/07 08:23:32;;;;;;;4.57;4.37;;;;;;;;;;5013582;28;20414;-64
2023/07/07 08:25:59;;;;;;;4.60;4.30;;;;;;;;;;5013641;28;20437;-64
2023/07/07 08:28:25;;;;;;;5.80;5.30;;;;;;;;;;5013403;28;20419;-65
2023/07/07 08:30:51;;;;;;;5.00;4.70;;;;;;;;;;5013019;28;20498;-65
2023/07/07 08:33:18;;;;;;;9.27;5.07;;;;;;;;;;5012852;28;20475;-65
2023/07/07 08:35:46;;;;;;;5.10;4.70;;;;;;;;;;5013340;28;20447;-65
2023/07/07 08:38:15;;;;;;;6.03;5.20;;;;;;;;;;5013985;28;20408;-65
2023/07/07 08:40:50;;;;;;;5.07;4.63;;;;;;;;;;5013418;28;20445;-65
2023/07/07 08:43:29;;;;;;;4.80;4.60;;;;;;;;;;5012417;28;20478;-65
2023/07/07 08:46:07;;;;;;;8.80;5.10;;;;;;;;;;5013034;28;20793;-65
2023/07/07 08:48:46;;;;;;;5.03;4.57;;;;;;;;;;5013368;28;20874;-65
2023/07/07 08:51:17;;;;;;;7.13;4.70;;;;;;;;;;5012875;28;20443;-65
2023/07/07 08:53:52;;;;;;;5.20;4.70;;;;;;;;;;5011737;28;20502;-65
2023/07/07 08:56:26;;;;;;;5.00;4.63;;;;;;;;;;5012787;28;20436;-65
2023/07/07 08:58:52;;;;;;;4.57;4.00;;;;;;;;;;5013003;28;20469;-65
2023/07/07 09:01:37;;;;;;;10.93;4.60;;;;;;;;;;5013307;28;20432;-65
2023/07/07 09:04:24;;;;;;;5.20;4.80;;;;;;;;;;5012844;28;20453;-65
2023/07/07 09:06:50;;;;;;;5.60;5.10;;;;;;;;;;5012608;28;20471;-65
2023/07/07 09:09:24;;;;;;;4.67;4.37;;;;;;;;;;5012884;28;20397;-64
2023/07/07 09:11:59;;;;;;;4.47;4.23;;;;;;;;;;5011408;28;20502;-65
2023/07/07 09:14:27;;;;;;;4.70;4.40;;;;;;;;;;5012635;28;20427;-65
2023/07/07 09:16:58;;;;;;;5.43;4.90;;;;;;;;;;5012650;28;20461;-65
2023/07/07 09:19:30;;;;;;;5.73;4.33;;;;;;;;;;5012265;28;20420;-65
2023/07/07 09:21:58;;;;;;;10.73;4.27;;;;;;;;;;5012826;28;20925;-65
2023/07/07 09:24:31;;;;;;;5.77;5.30;;;;;;;;;;5012636;28;20499;-65
2023/07/07 09:27:09;;;;;;;10.00;4.43;;;;;;;;;;5012404;28;20440;-65
2023/07/07 09:29:35;;;;;;;5.40;4.87;;;;;;;;;;5012459;28;20950;-65
2023/07/07 09:32:02;;;;;;;7.50;4.70;;;;;;;;;;5010781;28;20451;-65
2023/07/07 09:34:32;;;;;;;5.30;4.90;;;;;;;;;;5012097;28;20411;-65
2023/07/07 09:37:16;;;;;;;4.27;4.07;;;;;;;;;;5012191;28;20450;-65
2023/07/07 09:39:42;;;;;;;4.63;4.37;;;;;;;;;;5012285;28;20502;-65
2023/07/07 09:42:13;;;;;;;6.77;4.40;;;;;;;;;;5012155;28;20503;-65
2023/07/07 09:44:42;;;;;;;5.17;4.70;;;;;;;;;;5012063;28;20419;-65
2023/07/07 09:47:16;;;;;;;4.90;4.60;;;;;;;;;;5012304;28;20462;-65
2023/07/07 09:49:57;;;;;;;5.37;5.07;;;;;;;;;;5012202;28;20416;-65
2023/07/07 09:52:49;;;;;;;5.63;5.23;;;;;;;;;;5010865;28;20553;-65
2023/07/07 09:55:18;;;;;;;5.50;5.10;;;;;;;;;;5013451;28;20435;-65
2023/07/07 09:57:48;;;;;;;4.77;4.37;;;;;;;;;;5015680;28;20479;-65
2023/07/07 10:00:15;;;;;;;5.50;4.50;;;;;;;;;;5015469;28;20447;-65
2023/07/07 10:02:41;;;;;;;11.37;5.57;;;;;;;;;;5015412;28;20481;-65
2023/07/07 10:05:08;;;;;;;5.83;4.63;;;;;;;;;;5014322;28;20516;-65
2023/07/07 10:07:36;;;;;;;5.33;4.87;;;;;;;;;;5015204;28;20438;-65
2023/07/07 10:10:03;;;;;;;5.60;5.10;;;;;;;;;;5015244;28;20468;-65
2023/07/07 10:12:29;;;;;;;4.63;4.33;;;;;;;;;;5015386;28;20858;-65
2023/07/07 10:14:56;;;;;;;5.07;4.77;;;;;;;;;;5015409;28;20436;-65
2023/07/07 10:17:32;;;;;;;6.97;5.23;;;;;;;;;;5015342;28;20439;-65
2023/07/07 10:20:00;;;;;;;7.77;4.10;;;;;;;;;;5015716;28;20431;-65
2023/07/07 10:22:26;;;;;;;5.00;4.53;;;;;;;;;;5015512;28;20833;-65
2023/07/07 10:24:52;;;;;;;5.17;4.80;;;;;;;;;;5014071;28;20922;-65
2023/07/07 10:27:21;;;;;;;6.23;4.67;;;;;;;;;;5015180;28;20432;-65
2023/07/07 10:29:47;;;;;;;9.30;4.70;;;;;;;;;;5015006;28;20504;-65
2023/07/07 10:32:17;;;;;;;6.93;4.70;;;;;;;;;;5014774;28;20424;-65
2023/07/07 10:34:47;;;;;;;19.13;14.03;;;;;;;;;;5015067;28;20419;-65
2023/07/07 10:37:21;;;;;;;9.33;5.90;;;;;;;;;;5014732;28;20416;-65
2023/07/07 10:39:54;;;;;;;5.13;4.60;;;;;;;;;;5014943;28;20499;-65
2023/07/07 10:42:24;;;;;;;8.23;5.20;;;;;;;;;;5015019;28;20443;-65
2023/07/07 10:44:50;;;;;;;7.60;4.57;;;;;;;;;;5014856;28;20900;-65
2023/07/07 10:47:21;;;;;;;7.40;5.80;;;;;;;;;;5014573;28;20487;-65
2023/07/07 10:49:48;;;;;;;5.33;4.90;;;;;;;;;;5014826;28;20961;-65
2023/07/07 10:52:32;;;;;;;5.37;4.70;;;;;;;;;;5014684;28;20528;-65
2023/07/07 10:55:17;;;;;;;5.43;5.03;;;;;;;;;;5014625;28;20428;-65
2023/07/07 10:57:43;;;;;;;5.63;5.23;;;;;;;;;;5014600;28;20801;-65
2023/07/07 11:00:23;;;;;;;5.50;4.97;;;;;;;;;;5014489;28;20440;-65
2023/07/07 11:03:04;;;;;;;6.17;5.30;;;;;;;;;;5014570;28;20197;-65
2023/07/07 11:05:35;;;;;;;13.80;5.37;;;;;;;;;;5014204;28;20401;-65
2023/07/07 11:08:16;;;;;;;5.00;4.50;;;;;;;;;;5014504;28;20420;-65
2023/07/07 11:10:42;;;;;;;6.10;5.30;;;;;;;;;;5013172;28;20975;-64
2023/07/07 11:13:14;;;;;;;6.10;5.60;;;;;;;;;;5014107;28;20480;-64
2023/07/07 11:15:45;;;;;;;5.93;4.80;;;;;;;;;;5014291;28;20187;-64
2023/07/07 11:18:11;;;;;;;5.30;4.90;;;;;;;;;;5014430;28;20460;-64
2023/07/07 11:20:43;;;;;;;4.83;4.50;;;;;;;;;;5014261;28;20919;-64
2023/07/07 11:23:21;;;;;;;6.20;4.80;;;;;;;;;;5014178;28;20208;-64
2023/07/07 11:26:11;;;;;;;5.90;5.30;;;;;;;;;;5014364;28;20845;-64
2023/07/07 11:28:43;;;;;;;4.90;4.50;;;;;;;;;;5013547;28;20445;-64
2023/07/07 11:31:38;;;;;;;6.27;5.70;;;;;;;;;;5012987;28;20774;-64
2023/07/07 11:35:04;;;;;;;6.87;5.47;;;;;;;;;;5011883;28;20935;-64
2023/07/07 11:37:49;;;;;;;5.33;4.90;;;;;;;;;;5011335;28;20457;-64
2023/07/07 11:40:36;;;;;;;5.20;4.90;;;;;;;;;;5013321;28;20483;-64
2023/07/07 11:43:10;;;;;;;4.60;4.33;;;;;;;;;;5013196;28;20858;-64
2023/07/07 11:45:41;;;;;;;5.40;4.57;;;;;;;;;;5014084;28;20404;-64
2023/07/07 11:48:16;;;;;;;5.97;5.30;;;;;;;;;;5013939;28;20475;-65
2023/07/07 11:51:05;;;;;;;4.80;4.50;;;;;;;;;;5013854;28;20401;-65
2023/07/07 11:53:34;;;;;;;7.50;4.70;;;;;;;;;;5012586;28;20959;-65
2023/07/07 11:56:00;;;;;;;4.73;4.53;;;;;;;;;;5013581;28;20436;-65
2023/07/07 11:58:52;;;;;;;5.40;5.00;;;;;;;;;;5013583;28;20797;-64
2023/07/07 12:01:20;;;;;;;5.07;4.73;;;;;;;;;;5013616;28;20600;-64
2023/07/07 12:03:55;;;;;;;8.33;4.67;;;;;;;;;;5013508;28;20429;-64
2023/07/07 12:06:25;;;;;;;6.00;4.47;;;;;;;;;;5013543;28;20892;-64
2023/07/07 12:09:13;;;;;;;4.93;4.63;;;;;;;;;;5013355;28;20440;-64
2023/07/07 12:11:41;;;;;;;5.67;5.27;;;;;;;;;;5013406;28;20437;-64
2023/07/07 12:14:28;;;;;;;5.00;4.70;;;;;;;;;;5013219;28;20526;-64
2023/07/07 12:16:55;;;;;;;7.73;4.63;;;;;;;;;;5013020;28;20424;-65
2023/07/07 12:19:33;;;;;;;4.90;4.50;;;;;;;;;;5013143;28;20429;-64
2023/07/07 12:22:00;;;;;;;6.90;4.77;;;;;;;;;;5013185;28;20420;-64
2023/07/07 12:24:38;;;;;;;5.20;4.90;;;;;;;;;;5011983;28;20436;-64
2023/07/07 12:27:13;;;;;;;9.93;4.83;;;;;;;;;;5013301;28;20420;-65
2023/07/07 12:29:40;;;;;;;5.27;4.77;;;;;;;;;;5013213;28;20439;-65
2023/07/07 12:32:06;;;;;;;4.60;4.27;;;;;;;;;;5012965;28;20416;-65
2023/07/07 12:34:42;;;;;;;6.10;5.50;;;;;;;;;;5013110;28;20405;-65
2023/07/07 12:37:16;;;;;;;5.60;5.00;;;;;;;;;;5013087;28;20495;-65
2023/07/07 12:39:51;;;;;;;9.00;8.03;;;;;;;;;;5013178;28;20393;-65
2023/07/07 12:42:17;;;;;;;86.07;57.57;;;;;;;;;;5012988;28;20420;-65
2023/07/07 12:44:45;;;;;;;6.30;5.07;;;;;;;;;;5012965;28;20409;-65
2023/07/07 12:47:37;;;;;;;6.03;4.60;;;;;;;;;;5013151;28;20412;-65
2023/07/07 12:50:21;;;;;;;5.13;4.63;;;;;;;;;;5012551;28;20483;-65
2023/07/07 12:52:47;;;;;;;4.93;4.60;;;;;;;;;;5011642;28;20547;-65
2023/07/07 12:55:30;;;;;;;4.67;3.60;;;;;;;;;;5012698;28;20511;-65
2023/07/07 12:57:58;;;;;;;5.90;5.00;;;;;;;;;;5012803;28;20428;-65
2023/07/07 13:00:30;;;;;;;7.00;4.60;;;;;;;;;;5012784;28;20440;-65
2023/07/07 13:03:01;;;;;;;4.80;4.30;;;;;;;;;;5011570;28;20420;-65
2023/07/07 13:05:34;;;;;;;4.33;3.80;;;;;;;;;;5012440;28;20430;-65
2023/07/07 13:08:05;;;;;;;6.20;4.20;;;;;;;;;;5012697;28;20531;-65
2023/07/07 13:10:34;;;;;;;6.77;4.17;;;;;;;;;;5012802;28;20406;-65
2023/07/07 13:13:21;;;;;;;5.50;4.97;;;;;;;;;;5012475;28;20499;-65
2023/07/07 13:15:50;;;;;;;6.60;4.10;;;;;;;;;;5012980;28;20781;-65
2023/07/07 13:18:17;;;;;;;4.73;4.33;;;;;;;;;;5012456;28;20409;-65
2023/07/07 13:20:44;;;;;;;6.63;3.83;;;;;;;;;;5012348;28;20412;-65
2023/07/07 13:23:18;;;;;;;5.97;4.17;;;;;;;;;;5012519;28;20421;-65
2023/07/07 13:25:46;;;;;;;10.37;4.30;;;;;;;;;;5012638;28;20393;-65
2023/07/07 13:28:13;;;;;;;4.43;4.23;;;;;;;;;;5012469;28;20411;-65
2023/07/07 13:30:41;;;;;;;7.00;4.30;;;;;;;;;;5014504;28;20409;-65
2023/07/07 13:33:08;;;;;;;5.73;4.17;;;;;;;;;;5016290;28;20460;-65
2023/07/07 13:35:36;;;;;;;8.40;4.33;;;;;;;;;;5016424;28;20417;-65
2023/07/07 13:38:06;;;;;;;7.73;4.70;;;;;;;;;;5015104;28;20420;-65
2023/07/07 13:40:35;;;;;;;6.80;4.20;;;;;;;;;;5016242;28;20924;-65
2023/07/07 13:43:01;;;;;;;6.20;4.43;;;;;;;;;;5016126;28;20420;-65
2023/07/07 13:45:27;;;;;;;5.83;3.93;;;;;;;;;;5016217;28;20416;-65
2023/07/07 13:47:53;;;;;;;5.90;4.90;;;;;;;;;;5016048;28;20243;-65
2023/07/07 13:50:21;;;;;;;11.50;5.07;;;;;;;;;;5015903;28;20182;-65
2023/07/07 13:52:48;;;;;;;4.97;4.57;;;;;;;;;;5015931;28;20839;-65
2023/07/07 13:55:17;;;;;;;4.93;4.37;;;;;;;;;;5015976;28;20440;-65
2023/07/07 13:57:43;;;;;;;4.70;4.30;;;;;;;;;;5015788;28;20787;-65
2023/07/07 14:00:16;;;;;;;6.80;4.93;;;;;;;;;;5014466;28;20463;-65
2023/07/07 14:02:46;;;;;;;5.20;4.70;;;;;;;;;;5015852;28;20416;-65
2023/07/07 14:05:15;;;;;;;6.03;4.10;;;;;;;;;;5015686;28;20479;-65
2023/07/07 14:07:41;;;;;;;4.27;3.97;;;;;;;;;;5015686;28;20413;-65
2023/07/07 14:10:27;;;;;;;8.23;4.50;;;;;;;;;;5015595;28;20502;-65
2023/07/07 14:12:53;;;;;;;6.70;5.20;;;;;;;;;;5015208;28;20484;-65
2023/07/07 14:15:22;;;;;;;7.30;4.93;;;;;;;;;;5015430;28;20819;-65
2023/07/07 14:17:48;;;;;;;10.00;4.20;;;;;;;;;;5014353;28;20436;-65
2023/07/07 14:20:20;;;;;;;10.60;4.70;;;;;;;;;;5015301;28;20860;-65
2023/07/07 14:22:46;;;;;;;4.77;4.47;;;;;;;;;;5015383;28;20431;-64
2023/07/07 14:25:16;;;;;;;5.83;4.30;;;;;;;;;;5015182;28;20813;-62
2023/07/07 14:27:43;;;;;;;11.47;4.77;;;;;;;;;;5015428;28;20424;-64
2023/07/07 14:30:17;;;;;;;7.00;5.17;;;;;;;;;;5013555;28;20521;-64
2023/07/07 14:32:43;;;;;;;4.43;4.00;;;;;;;;;;5015228;28;20453;-64
2023/07/07 14:35:15;;;;;;;5.10;4.43;;;;;;;;;;5015087;28;20436;-64
2023/07/07 14:37:48;;;;;;;5.10;4.00;;;;;;;;;;5015225;28;20889;-64
2023/07/07 14:40:33;;;;;;;5.87;5.30;;;;;;;;;;5014897;28;20520;-64
2023/07/07 14:43:00;;;;;;;6.20;4.80;;;;;;;;;;5014926;28;20896;-64
2023/07/07 14:45:31;;;;;;;8.27;4.47;;;;;;;;;;5014768;28;20521;-64
2023/07/07 14:47:57;;;;;;;8.40;5.37;;;;;;;;;;5014922;28;20439;-64
2023/07/07 14:50:23;;;;;;;10.70;4.60;;;;;;;;;;5014622;28;20535;-64
2023/07/07 14:52:51;;;;;;;5.83;5.00;;;;;;;;;;5014737;28;20455;-64
2023/07/07 14:55:28;;;;;;;5.03;4.20;;;;;;;;;;5014416;28;20448;-64